Time;durP1;ratioP1;P1;durP2;ratioP2;P2;SDS_P1;SDS_P2;PMS_P1;PMS_P2;Temp;Humidity;BMP_temperature;BMP_pressure;BME280_temperature;BME280_humidity;BME280_pressure;Samples;Min_cycle;Max_cycle;Signal;HPM_P1;HPM_P2
2023/06/04 00:01:11;;;;;;;2.10;1.90;;;15.10;99.90;;;;;;4128099;28;20030;-64
2023/06/04 00:03:12;;;;;;;2.97;2.03;;;15.00;99.90;;;;;;4128720;28;20042;-66
2023/06/04 00:05:13;;;;;;;4.22;1.77;;;15.00;99.90;;;;;;4127824;28;20093;-63
2023/06/04 00:07:14;;;;;;;3.90;1.88;;;15.00;99.90;;;;;;4128611;28;20109;-61
2023/06/04 00:09:15;;;;;;;4.43;2.08;;;15.00;99.90;;;;;;4128442;28;20105;-58
2023/06/04 00:11:17;;;;;;;4.47;2.03;;;15.00;99.90;;;;;;4127984;28;20092;-61
2023/06/04 00:13:18;;;;;;;5.78;2.97;;;15.00;99.90;;;;;;4128915;28;20039;-60
2023/06/04 00:15:19;;;;;;;4.85;1.88;;;15.00;99.90;;;;;;4127943;28;20077;-61
2023/06/04 00:17:20;;;;;;;2.60;2.17;;;15.00;99.90;;;;;;4128931;28;20034;-61
2023/06/04 00:19:21;;;;;;;4.47;2.40;;;15.00;99.90;;;;;;4125440;28;20093;-61
2023/06/04 00:21:22;;;;;;;2.22;1.80;;;14.90;99.90;;;;;;4128769;28;20042;-59
2023/06/04 00:23:23;;;;;;;7.30;2.30;;;14.90;99.90;;;;;;4127425;28;20533;-57
2023/06/04 00:25:25;;;;;;;3.42;2.25;;;14.90;99.90;;;;;;4129084;28;20529;-64
2023/06/04 00:27:26;;;;;;;4.88;2.22;;;14.90;99.90;;;;;;4127915;28;20557;-60
2023/06/04 00:29:27;;;;;;;4.10;2.03;;;14.90;99.90;;;;;;4129041;28;20061;-59
2023/06/04 00:31:28;;;;;;;3.67;1.95;;;14.90;99.90;;;;;;4127825;28;20097;-60
2023/06/04 00:33:29;;;;;;;3.05;2.10;;;14.80;99.90;;;;;;4127129;28;20046;-62
2023/06/04 00:35:32;;;;;;;3.28;2.40;;;14.80;99.90;;;;;;4127923;28;20474;-60
2023/06/04 00:37:33;;;;;;;3.70;2.33;;;14.80;99.90;;;;;;4128569;28;20066;-60
2023/06/04 00:39:34;;;;;;;5.13;2.13;;;14.70;99.90;;;;;;4128073;28;20031;-60
2023/06/04 00:41:35;;;;;;;3.22;1.75;;;14.80;99.90;;;;;;4128024;28;20441;-59
2023/06/04 00:43:36;;;;;;;2.45;1.75;;;14.70;99.90;;;;;;4128249;28;20042;-60
2023/06/04 00:45:38;;;;;;;3.78;2.42;;;14.80;99.90;;;;;;4127708;28;20093;-64
2023/06/04 00:47:40;;;;;;;2.47;1.80;;;14.80;99.90;;;;;;4128872;28;20027;-61
2023/06/04 00:49:42;;;;;;;3.17;1.85;;;14.80;99.90;;;;;;4127766;28;20089;-59
2023/06/04 00:51:43;;;;;;;4.07;1.80;;;14.80;99.90;;;;;;4127790;28;20038;-57
2023/06/04 00:53:44;;;;;;;3.13;1.95;;;14.80;99.90;;;;;;4127126;28;20101;-60
2023/06/04 00:55:45;;;;;;;7.35;2.10;;;14.90;99.90;;;;;;4128947;28;20038;-59
2023/06/04 00:57:46;;;;;;;2.72;1.77;;;14.90;99.90;;;;;;4127067;28;20461;-59
2023/06/04 00:59:48;;;;;;;1.70;1.50;;;14.90;99.90;;;;;;4131305;28;20039;-60
2023/06/04 01:02:03;;;;;;;4.00;2.00;;;14.90;99.90;;;;;;4130643;28;20425;-59
2023/06/04 01:04:08;;;;;;;4.32;1.95;;;14.90;99.90;;;;;;4131799;28;20041;-58
2023/06/04 01:06:35;;;;;;;5.03;1.67;;;14.90;99.90;;;;;;4130603;28;20089;-57
2023/06/04 01:08:38;;;;;;;2.97;1.77;;;14.90;99.90;;;;;;4131659;28;20592;-60
2023/06/04 01:10:53;;;;;;;5.10;1.95;;;14.90;99.90;;;;;;4130326;28;20050;-60
2023/06/04 01:12:55;;;;;;;2.35;2.15;;;14.90;99.90;;;;;;4131627;28;20727;-59
2023/06/04 01:14:56;;;;;;;1.90;1.48;;;14.90;99.90;;;;;;4130176;28;20452;-60
2023/06/04 01:17:08;;;;;;;2.47;1.40;;;14.90;99.90;;;;;;4131666;28;20051;-59
2023/06/04 01:19:41;;;;;;;2.88;1.45;;;14.90;99.90;;;;;;4130390;28;20077;-61
2023/06/04 01:21:44;;;;;;;2.47;1.30;;;14.90;99.90;;;;;;4131476;28;20084;-58
2023/06/04 01:23:58;;;;;;;3.70;1.30;;;14.90;99.90;;;;;;4129706;28;20148;-60
2023/06/04 01:26:04;;;;;;;3.38;2.03;;;14.90;99.90;;;;;;4131411;28;20073;-61
2023/06/04 01:28:10;;;;;;;1.75;1.30;;;14.80;99.90;;;;;;4129572;28;20164;-56
2023/06/04 01:30:12;;;;;;;4.80;1.75;;;14.80;99.90;;;;;;4130509;28;20447;-62
2023/06/04 01:32:14;;;;;;;2.88;1.27;;;14.80;99.90;;;;;;4130271;28;20034;-57
2023/06/04 01:34:15;;;;;;;1.67;1.33;;;14.80;99.90;;;;;;4131362;28;20027;-58
2023/06/04 01:36:16;;;;;;;2.45;1.30;;;14.80;99.90;;;;;;4130092;28;20537;-59
2023/06/04 01:38:18;;;;;;;1.70;1.30;;;14.80;99.90;;;;;;4130392;28;20042;-60
2023/06/04 01:40:19;;;;;;;3.65;1.50;;;14.80;99.90;;;;;;4129575;28;20038;-61
2023/06/04 01:42:20;;;;;;;3.10;1.90;;;14.70;99.90;;;;;;4131163;28;20023;-60
2023/06/04 01:44:21;;;;;;;2.17;1.90;;;14.70;99.90;;;;;;4129523;28;20030;-59
2023/06/04 01:46:22;;;;;;;3.20;2.10;;;14.60;99.90;;;;;;4129723;28;20042;-61
2023/06/04 01:48:23;;;;;;;6.50;2.28;;;14.60;99.90;;;;;;4130160;28;20097;-60
2023/06/04 01:50:25;;;;;;;2.58;1.88;;;14.50;99.90;;;;;;4129720;28;20038;-59
2023/06/04 01:52:26;;;;;;;2.55;2.05;;;14.40;99.90;;;;;;4130107;28;20043;-59
2023/06/04 01:54:29;;;;;;;5.28;1.80;;;14.30;99.90;;;;;;4129592;28;20467;-61
2023/06/04 01:56:30;;;;;;;2.22;1.70;;;14.20;99.90;;;;;;4130523;28;20097;-57
2023/06/04 01:58:33;;;;;;;1.92;1.65;;;14.20;99.90;;;;;;4129775;28;20434;-60
2023/06/04 02:00:34;;;;;;;2.42;1.63;;;14.20;99.90;;;;;;4130764;28;20035;-61
2023/06/04 02:02:41;;;;;;;4.35;1.48;;;14.20;99.90;;;;;;4129772;28;20081;-60
2023/06/04 02:04:42;;;;;;;2.42;1.42;;;14.10;99.90;;;;;;4130951;28;20034;-61
2023/06/04 02:06:44;;;;;;;4.07;2.20;;;14.20;99.90;;;;;;4129369;28;20034;-60
2023/06/04 02:08:45;;;;;;;3.42;1.70;;;14.20;99.90;;;;;;4144884;28;20469;-60
2023/06/04 02:10:47;;;;;;;4.68;1.60;;;14.20;99.90;;;;;;4129145;28;20458;-62
2023/06/04 02:12:57;;;;;;;2.67;1.60;;;14.10;99.90;;;;;;4130286;28;20038;-60
2023/06/04 02:14:58;;;;;;;2.00;1.75;;;14.10;99.90;;;;;;4129777;28;20026;-59
2023/06/04 02:16:59;;;;;;;3.92;2.10;;;14.10;99.90;;;;;;4130193;28;20026;-60
2023/06/04 02:19:00;;;;;;;3.92;2.08;;;14.00;99.90;;;;;;4129653;28;20034;-60
2023/06/04 02:21:01;;;;;;;2.78;1.90;;;13.90;99.90;;;;;;4129982;28;20081;-59
2023/06/04 02:23:03;;;;;;;3.53;2.03;;;13.80;99.90;;;;;;4130158;28;20073;-62
2023/06/04 02:25:05;;;;;;;3.37;2.33;;;13.80;99.90;;;;;;4129257;28;20294;-60
2023/06/04 02:27:07;;;;;;;3.60;2.23;;;13.80;99.90;;;;;;4130431;28;20030;-61
2023/06/04 02:29:09;;;;;;;1.53;1.40;;;13.70;99.90;;;;;;4128543;28;20487;-60
2023/06/04 02:31:10;;;;;;;4.10;1.88;;;13.70;99.90;;;;;;4145199;28;20494;-60
2023/06/04 02:33:11;;;;;;;3.73;1.90;;;13.60;99.90;;;;;;4128473;28;20046;-61
2023/06/04 02:35:12;;;;;;;8.63;2.10;;;13.60;99.90;;;;;;4129679;28;20093;-58
2023/06/04 02:37:14;;;;;;;1.87;1.67;;;13.60;99.90;;;;;;4128755;28;20085;-56
2023/06/04 02:39:15;;;;;;;4.53;1.80;;;13.50;99.90;;;;;;4130373;28;20030;-60
2023/06/04 02:41:16;;;;;;;5.20;2.00;;;13.50;99.90;;;;;;4128773;28;20100;-58
2023/06/04 02:43:17;;;;;;;2.93;1.60;;;13.50;99.90;;;;;;4130253;28;20026;-59
2023/06/04 02:45:18;;;;;;;8.70;1.60;;;13.60;99.90;;;;;;4129353;28;20035;-59
2023/06/04 02:47:20;;;;;;;4.20;1.80;;;13.60;99.90;;;;;;4129598;28;20038;-58
2023/06/04 02:49:21;;;;;;;4.23;1.40;;;13.60;99.90;;;;;;4129704;28;20034;-59
2023/06/04 02:51:22;;;;;;;6.50;1.73;;;13.60;99.90;;;;;;4128811;28;20467;-60
2023/06/04 02:53:23;;;;;;;4.80;1.97;;;13.60;99.90;;;;;;4129185;28;20081;-59
2023/06/04 02:55:25;;;;;;;2.40;1.47;;;13.70;99.90;;;;;;4128677;28;20052;-59
2023/06/04 02:57:26;;;;;;;3.90;1.40;;;13.70;99.90;;;;;;4129945;28;20038;-60
2023/06/04 02:59:27;;;;;;;2.00;1.67;;;13.70;99.90;;;;;;4128887;28;20030;-63
2023/06/04 03:01:28;;;;;;;3.13;1.90;;;13.70;99.90;;;;;;4129527;28;20097;-57
2023/06/04 03:03:31;;;;;;;8.97;2.10;;;13.80;99.90;;;;;;4142980;28;20482;-63
2023/06/04 03:05:32;;;;;;;2.90;1.80;;;13.70;99.90;;;;;;4129260;28;20541;-60
2023/06/04 03:07:33;;;;;;;3.70;1.73;;;13.70;99.90;;;;;;4127709;28;20057;-59
2023/06/04 03:09:35;;;;;;;5.87;1.40;;;13.90;99.90;;;;;;4129935;28;20414;-56
2023/06/04 03:11:36;;;;;;;3.97;1.63;;;14.00;99.90;;;;;;4129044;28;20136;-59
2023/06/04 03:13:38;;;;;;;2.10;1.57;;;14.20;99.90;;;;;;4129483;28;20505;-60
2023/06/04 03:15:39;;;;;;;2.17;1.70;;;14.40;99.90;;;;;;4128489;28;20069;-59
2023/06/04 03:17:41;;;;;;;2.10;1.63;;;14.50;99.90;;;;;;4113362;28;20089;-64
2023/06/04 03:19:42;;;;;;;1.73;1.17;;;14.60;99.90;;;;;;4112887;28;20066;-59
2023/06/04 03:21:44;;;;;;;2.17;1.30;;;14.70;99.90;;;;;;4112337;28;20038;-59
2023/06/04 03:23:45;;;;;;;4.30;1.40;;;14.80;99.90;;;;;;4112653;28;20039;-58
2023/06/04 03:25:47;;;;;;;7.28;1.63;;;15.00;99.90;;;;;;4122163;28;20089;-59
2023/06/04 03:27:48;;;;;;;2.55;1.50;;;15.20;99.90;;;;;;4128836;28;20042;-58
2023/06/04 03:29:49;;;;;;;1.70;1.40;;;15.50;99.90;;;;;;4127928;28;20035;-59
2023/06/04 03:31:50;;;;;;;2.30;1.38;;;15.70;99.90;;;;;;4129472;28;20023;-58
2023/06/04 03:33:52;;;;;;;3.03;1.20;;;15.80;99.90;;;;;;4127770;28;20081;-60
2023/06/04 03:35:53;;;;;;;1.42;1.13;;;15.90;99.90;;;;;;4128932;28;20070;-61
2023/06/04 03:37:54;;;;;;;4.88;1.63;;;15.90;99.90;;;;;;4128273;28;20074;-59
2023/06/04 03:39:56;;;;;;;2.38;1.38;;;16.10;99.90;;;;;;4129569;28;20100;-59
2023/06/04 03:41:57;;;;;;;5.43;1.65;;;16.30;99.90;;;;;;4143513;28;20493;-60
2023/06/04 03:43:58;;;;;;;2.88;1.58;;;16.30;99.90;;;;;;4129752;28;20027;-61
2023/06/04 03:46:02;;;;;;;2.75;1.60;;;16.40;99.90;;;;;;4128350;28;20034;-59
2023/06/04 03:48:03;;;;;;;4.75;1.77;;;16.50;99.90;;;;;;4129165;28;20093;-58
2023/06/04 03:50:06;;;;;;;4.03;1.90;;;16.70;99.90;;;;;;4128306;28;20084;-59
2023/06/04 03:52:07;;;;;;;6.60;1.80;;;16.80;99.90;;;;;;4128684;28;20419;-62
2023/06/04 03:54:08;;;;;;;4.22;1.95;;;16.70;99.90;;;;;;4128669;28;20034;-61
2023/06/04 03:56:09;;;;;;;2.65;1.52;;;16.80;99.90;;;;;;4127926;28;20046;-58
2023/06/04 03:58:11;;;;;;;2.35;1.83;;;17.00;99.90;;;;;;4128416;28;20097;-60
2023/06/04 04:00:13;;;;;;;5.25;1.60;;;17.10;99.90;;;;;;4128292;28;20026;-59
2023/06/04 04:02:15;;;;;;;4.55;1.42;;;17.10;99.90;;;;;;4129283;28;20026;-59
2023/06/04 04:04:16;;;;;;;2.40;1.52;;;17.00;99.90;;;;;;4127070;28;20577;-58
2023/06/04 04:06:18;;;;;;;4.25;1.95;;;17.10;99.90;;;;;;4128921;28;20085;-58
2023/06/04 04:08:21;;;;;;;3.90;1.98;;;17.20;99.90;;;;;;4127222;28;20042;-58
2023/06/04 04:10:22;;;;;;;2.72;1.85;;;17.50;99.90;;;;;;4129310;28;20549;-56
2023/06/04 04:12:23;;;;;;;2.58;1.45;;;17.80;99.90;;;;;;4128045;28;20039;-59
2023/06/04 04:14:24;;;;;;;4.10;2.10;;;17.80;99.90;;;;;;4129214;28;20034;-61
2023/06/04 04:16:27;;;;;;;2.20;1.80;;;17.90;99.90;;;;;;4127844;28;20081;-56
2023/06/04 04:18:32;;;;;;;2.20;1.52;;;17.90;99.90;;;;;;4128736;28;20081;-60
2023/06/04 04:20:33;;;;;;;3.42;2.15;;;17.70;99.90;;;;;;4127358;28;20179;-60
2023/06/04 04:22:34;;;;;;;2.70;1.70;;;17.60;99.90;;;;;;4128139;28;20038;-60
2023/06/04 04:24:36;;;;;;;4.25;1.73;;;17.70;99.90;;;;;;4128542;28;20477;-61
2023/06/04 04:26:38;;;;;;;6.78;1.23;;;17.80;99.90;;;;;;4127514;28;20538;-60
2023/06/04 04:28:39;;;;;;;3.28;1.75;;;17.70;99.90;;;;;;4128332;28;20026;-60
2023/06/04 04:30:40;;;;;;;1.73;1.40;;;17.70;99.90;;;;;;4127814;28;20549;-61
2023/06/04 04:32:48;;;;;;;4.85;1.35;;;17.50;99.90;;;;;;4128986;28;20483;-60
2023/06/04 04:34:54;;;;;;;5.18;1.95;;;17.90;99.90;;;;;;4130459;28;20030;-62
2023/06/04 04:36:56;;;;;;;3.05;1.73;;;18.00;99.90;;;;;;4131707;28;20497;-61
2023/06/04 04:38:58;;;;;;;1.55;1.30;;;18.10;99.90;;;;;;4130289;28;20042;-60
2023/06/04 04:41:00;;;;;;;1.95;1.75;;;18.30;99.90;;;;;;4132083;28;20030;-61
2023/06/04 04:43:01;;;;;;;2.97;1.88;;;18.40;99.90;;;;;;4131314;28;20030;-62
2023/06/04 04:45:03;;;;;;;2.47;1.75;;;18.50;99.90;;;;;;4131048;28;20014;-60
2023/06/04 04:47:04;;;;;;;3.50;1.35;;;18.50;99.90;;;;;;4129813;28;20038;-57
2023/06/04 04:49:06;;;;;;;3.15;1.60;;;18.20;99.90;;;;;;4131893;28;20046;-54
2023/06/04 04:51:07;;;;;;;7.03;1.83;;;18.20;99.90;;;;;;4130749;28;20022;-59
2023/06/04 04:53:08;;;;;;;1.75;1.58;;;18.00;99.90;;;;;;4131828;28;20034;-59
2023/06/04 04:55:11;;;;;;;3.03;1.48;;;17.90;99.90;;;;;;4130721;28;20030;-60
2023/06/04 04:57:12;;;;;;;1.63;1.52;;;17.80;99.90;;;;;;4131245;28;20092;-59
2023/06/04 04:59:13;;;;;;;2.63;1.98;;;17.90;99.90;;;;;;4130509;28;20069;-60
2023/06/04 05:01:15;;;;;;;3.95;1.50;;;18.20;99.90;;;;;;4131006;28;20541;-60
2023/06/04 05:03:16;;;;;;;2.45;1.52;;;18.50;99.90;;;;;;4131098;28;20368;-60
2023/06/04 05:05:17;;;;;;;4.95;1.20;;;18.90;99.90;;;;;;4128283;28;20537;-62
2023/06/04 05:07:21;;;;;;;1.88;1.02;;;19.00;99.90;;;;;;4130854;28;20054;-61
2023/06/04 05:09:22;;;;;;;1.70;1.20;;;18.90;99.90;;;;;;4130584;28;20031;-61
2023/06/04 05:11:23;;;;;;;3.78;1.27;;;19.00;99.90;;;;;;4131653;28;20093;-61
2023/06/04 05:13:24;;;;;;;2.00;1.23;;;18.90;99.90;;;;;;4130098;28;20108;-61
2023/06/04 05:15:26;;;;;;;2.42;1.10;;;18.80;99.90;;;;;;4131378;28;20080;-60
2023/06/04 05:17:29;;;;;;;1.65;1.00;;;18.80;99.90;;;;;;4130650;28;20034;-60
2023/06/04 05:19:32;;;;;;;2.60;1.30;;;18.80;99.90;;;;;;4131416;28;20022;-60
2023/06/04 05:21:33;;;;;;;2.95;1.30;;;18.80;99.90;;;;;;4130139;28;20038;-60
2023/06/04 05:23:36;;;;;;;1.90;1.17;;;18.90;99.90;;;;;;4131465;28;20552;-60
2023/06/04 05:25:38;;;;;;;3.72;1.60;;;19.00;99.90;;;;;;4122346;28;20031;-64
2023/06/04 05:27:40;;;;;;;3.65;1.15;;;19.20;99.90;;;;;;4126022;28;20046;-62
2023/06/04 05:29:41;;;;;;;3.25;1.38;;;19.30;99.90;;;;;;4129963;28;20124;-61
2023/06/04 05:31:42;;;;;;;3.38;1.50;;;19.20;99.90;;;;;;4130765;28;20097;-61
2023/06/04 05:33:44;;;;;;;1.73;1.10;;;19.40;99.90;;;;;;4130692;28;20018;-59
2023/06/04 05:35:48;;;;;;;2.17;1.45;;;19.70;99.90;;;;;;4130472;28;20467;-62
2023/06/04 05:37:53;;;;;;;2.10;1.23;;;19.90;99.90;;;;;;4130709;28;20447;-63
2023/06/04 05:39:57;;;;;;;2.28;1.40;;;20.10;99.90;;;;;;4129649;28;20203;-60
2023/06/04 05:41:58;;;;;;;6.85;1.60;;;20.30;99.90;;;;;;4126527;28;20100;-61
2023/06/04 05:44:00;;;;;;;1.70;1.13;;;20.60;99.80;;;;;;4130463;28;20056;-58
2023/06/04 05:46:01;;;;;;;4.47;1.58;;;20.20;99.80;;;;;;4126825;28;20043;-61
2023/06/04 05:48:02;;;;;;;2.72;1.10;;;20.10;99.90;;;;;;4120324;28;20046;-61
2023/06/04 05:50:04;;;;;;;2.42;1.60;;;20.00;99.90;;;;;;4131266;28;20042;-61
2023/06/04 05:52:06;;;;;;;2.00;1.40;;;20.20;99.90;;;;;;4126504;28;20074;-59
2023/06/04 05:54:07;;;;;;;4.13;1.45;;;20.60;99.90;;;;;;4121681;28;20054;-59
2023/06/04 05:56:08;;;;;;;3.38;1.35;;;20.90;99.50;;;;;;4123577;28;20097;-59
2023/06/04 05:58:09;;;;;;;2.33;1.38;;;20.60;99.50;;;;;;4130453;28;20104;-59
2023/06/04 06:00:11;;;;;;;1.83;1.50;;;20.50;99.60;;;;;;4129849;28;20043;-65
2023/06/04 06:02:13;;;;;;;3.92;1.52;;;20.30;99.80;;;;;;4129630;28;20039;-58
2023/06/04 06:04:15;;;;;;;6.35;1.35;;;20.20;99.90;;;;;;4129764;28;20027;-59
2023/06/04 06:06:18;;;;;;;1.67;1.30;;;20.30;99.90;;;;;;4128833;28;20054;-61
2023/06/04 06:08:19;;;;;;;3.35;1.20;;;20.10;99.90;;;;;;4129131;28;20101;-59
2023/06/04 06:10:20;;;;;;;4.00;1.45;;;20.00;99.90;;;;;;4129696;28;20494;-59
2023/06/04 06:12:21;;;;;;;4.18;1.45;;;20.00;99.90;;;;;;4129496;28;20485;-59
2023/06/04 06:14:23;;;;;;;1.70;1.40;;;20.40;99.90;;;;;;4130218;28;20613;-60
2023/06/04 06:16:24;;;;;;;4.47;1.42;;;20.50;99.90;;;;;;4130286;28;20042;-58
2023/06/04 06:18:25;;;;;;;2.63;1.55;;;20.60;99.80;;;;;;4127441;28;20489;-60
2023/06/04 06:20:27;;;;;;;3.67;1.40;;;20.50;99.90;;;;;;4130119;28;20089;-60
2023/06/04 06:22:28;;;;;;;2.28;1.67;;;20.40;99.90;;;;;;4129380;28;20038;-60
2023/06/04 06:24:30;;;;;;;2.88;1.60;;;20.40;99.90;;;;;;4130159;28;20053;-64
2023/06/04 06:26:31;;;;;;;2.28;1.38;;;20.30;99.90;;;;;;4128920;28;20026;-61
2023/06/04 06:28:32;;;;;;;2.25;1.48;;;20.40;99.90;;;;;;4130454;28;20026;-59
2023/06/04 06:30:33;;;;;;;4.03;1.20;;;21.10;99.90;;;;;;4129226;28;20035;-58
2023/06/04 06:32:35;;;;;;;5.03;1.50;;;21.20;99.90;;;;;;4129905;28;20031;-59
2023/06/04 06:34:37;;;;;;;3.10;1.85;;;21.30;99.60;;;;;;4128799;28;20470;-58
2023/06/04 06:36:39;;;;;;;2.60;2.15;;;21.20;99.90;;;;;;4129848;28;20093;-59
2023/06/04 06:38:40;;;;;;;2.22;1.63;;;21.10;99.90;;;;;;4128812;28;20474;-66
2023/06/04 06:40:41;;;;;;;5.57;2.67;;;21.30;99.90;;;;;;4128738;28;20100;-60
2023/06/04 06:42:42;;;;;;;2.83;1.40;;;21.30;99.90;;;;;;4129241;28;20084;-59
2023/06/04 06:44:44;;;;;;;3.30;1.48;;;21.50;99.80;;;;;;4128869;28;20046;-62
2023/06/04 06:46:46;;;;;;;2.80;1.67;;;21.70;99.70;;;;;;4129820;28;20030;-63
2023/06/04 06:48:48;;;;;;;1.75;1.20;;;21.80;99.80;;;;;;4127363;28;20097;-61
2023/06/04 06:50:49;;;;;;;3.63;1.48;;;21.80;99.70;;;;;;4129682;28;20085;-62
2023/06/04 06:52:51;;;;;;;3.40;1.40;;;21.90;99.70;;;;;;4129858;28;20018;-63
2023/06/04 06:54:52;;;;;;;2.08;1.40;;;22.10;99.70;;;;;;4135607;28;20043;-66
2023/06/04 06:56:53;;;;;;;3.90;2.10;;;22.30;99.40;;;;;;4128251;28;20514;-62
2023/06/04 06:58:55;;;;;;;13.48;5.22;;;22.30;99.50;;;;;;4129171;28;20046;-61
2023/06/04 07:00:56;;;;;;;40.10;16.98;;;22.80;99.30;;;;;;4128924;28;20030;-64
2023/06/04 07:02:57;;;;;;;12.55;4.82;;;23.40;98.90;;;;;;4129604;28;20038;-68
2023/06/04 07:04:58;;;;;;;6.68;2.90;;;23.80;98.30;;;;;;4127945;28;20030;-65
2023/06/04 07:06:59;;;;;;;2.08;1.23;;;23.80;97.80;;;;;;4128501;28;20046;-62
2023/06/04 07:09:00;;;;;;;1.67;1.30;;;23.40;97.80;;;;;;4128852;28;20439;-62
2023/06/04 07:11:03;;;;;;;3.10;2.20;;;23.20;98.00;;;;;;4128826;28;20034;-64
2023/06/04 07:13:04;;;;;;;3.28;1.55;;;23.50;98.00;;;;;;4129258;28;20496;-61
2023/06/04 07:15:06;;;;;;;2.72;1.52;;;23.60;97.80;;;;;;4132519;28;20022;-67
2023/06/04 07:17:07;;;;;;;8.02;2.20;;;23.50;97.70;;;;;;4128951;28;20077;-62
2023/06/04 07:19:08;;;;;;;2.53;1.38;;;23.10;97.80;;;;;;4128141;28;20504;-62
2023/06/04 07:21:10;;;;;;;3.50;1.50;;;22.80;98.10;;;;;;4128927;28;20030;-62
2023/06/04 07:23:11;;;;;;;1.80;1.50;;;22.60;98.10;;;;;;4127620;28;20042;-62
2023/06/04 07:25:12;;;;;;;2.30;2.00;;;22.40;98.50;;;;;;4127239;28;20038;-62
2023/06/04 07:27:14;;;;;;;4.55;1.83;;;22.10;98.80;;;;;;4127815;28;20415;-61
2023/06/04 07:29:16;;;;;;;6.07;1.90;;;21.90;99.10;;;;;;4128099;28;20030;-64
2023/06/04 07:31:17;;;;;;;4.60;2.03;;;21.50;99.50;;;;;;4127900;28;20019;-67
2023/06/04 07:33:19;;;;;;;4.45;1.58;;;21.20;99.90;;;;;;4128364;28;20038;-70
2023/06/04 07:35:21;;;;;;;4.75;1.73;;;21.30;99.90;;;;;;4127431;28;20113;-64
2023/06/04 07:37:22;;;;;;;5.10;2.15;;;21.50;99.90;;;;;;4128899;28;20165;-63
2023/06/04 07:39:23;;;;;;;5.80;1.90;;;21.80;99.80;;;;;;4127614;28;20038;-68
2023/06/04 07:41:25;;;;;;;4.40;1.70;;;21.60;99.90;;;;;;4128629;28;20030;-66
2023/06/04 07:43:27;;;;;;;3.13;1.92;;;21.50;99.90;;;;;;4128798;28;20089;-64
2023/06/04 07:45:29;;;;;;;4.53;1.60;;;21.70;99.90;;;;;;4128007;28;20034;-72
2023/06/04 07:47:30;;;;;;;4.25;1.60;;;22.20;99.80;;;;;;4128947;28;20035;-63
2023/06/04 07:49:31;;;;;;;3.63;1.92;;;22.50;99.40;;;;;;4127818;28;20605;-62
2023/06/04 07:51:32;;;;;;;3.42;1.67;;;22.70;99.00;;;;;;4128820;28;20487;-64
2023/06/04 07:53:33;;;;;;;2.17;1.95;;;22.70;99.00;;;;;;4127465;28;20791;-66
2023/06/04 07:55:35;;;;;;;2.65;1.67;;;22.80;99.10;;;;;;4128667;28;20101;-68
2023/06/04 07:57:36;;;;;;;4.25;1.60;;;22.80;98.80;;;;;;4131997;28;20045;-64
2023/06/04 07:59:37;;;;;;;2.80;2.05;;;22.80;98.80;;;;;;4145345;28;20037;-63
2023/06/04 08:01:38;;;;;;;2.75;1.48;;;22.80;98.70;;;;;;4132239;28;20467;-63
2023/06/04 08:03:41;;;;;;;3.40;1.60;;;22.90;98.60;;;;;;4128445;28;20077;-64
2023/06/04 08:05:42;;;;;;;5.43;1.92;;;23.00;98.40;;;;;;4127132;28;20077;-62
2023/06/04 08:07:43;;;;;;;2.10;1.90;;;22.80;98.30;;;;;;4128696;28;20058;-63
2023/06/04 08:09:45;;;;;;;2.92;1.98;;;22.60;98.40;;;;;;4129924;28;20081;-66
2023/06/04 08:11:46;;;;;;;6.43;2.28;;;22.40;98.60;;;;;;4131449;28;20085;-71
2023/06/04 08:13:47;;;;;;;5.80;2.08;;;22.50;99.00;;;;;;4132140;28;20363;-66
2023/06/04 08:15:49;;;;;;;3.03;1.88;;;23.00;98.80;;;;;;4131774;28;20023;-61
2023/06/04 08:17:50;;;;;;;5.50;1.80;;;23.00;98.30;;;;;;4131649;28;20531;-63
2023/06/04 08:19:51;;;;;;;3.65;1.50;;;23.10;98.30;;;;;;4131253;28;20038;-67
2023/06/04 08:21:52;;;;;;;3.03;1.70;;;23.50;98.20;;;;;;4132002;28;20034;-61
2023/06/04 08:23:54;;;;;;;2.10;1.85;;;23.50;97.60;;;;;;4130944;28;20092;-63
2023/06/04 08:25:55;;;;;;;3.50;1.88;;;23.00;97.70;;;;;;4132224;28;20023;-63
2023/06/04 08:27:57;;;;;;;2.95;1.85;;;22.70;98.10;;;;;;4130777;28;20502;-63
2023/06/04 08:29:58;;;;;;;2.50;1.63;;;22.60;98.20;;;;;;4132308;28;20046;-62
2023/06/04 08:31:59;;;;;;;3.28;1.70;;;22.70;98.20;;;;;;4130450;28;20038;-67
2023/06/04 08:34:00;;;;;;;5.28;2.35;;;22.70;98.10;;;;;;4132130;28;20077;-62
2023/06/04 08:36:01;;;;;;;3.50;1.45;;;22.80;98.10;;;;;;4130835;28;20073;-62
2023/06/04 08:38:03;;;;;;;1.98;1.55;;;22.70;98.00;;;;;;4131507;28;20050;-62
2023/06/04 08:40:06;;;;;;;3.70;1.77;;;22.60;98.00;;;;;;4130710;28;20073;-62
2023/06/04 08:42:15;;;;;;;3.95;1.75;;;22.90;98.20;;;;;;4131491;28;20030;-63
2023/06/04 08:44:17;;;;;;;2.60;1.70;;;23.40;97.90;;;;;;4130952;28;20544;-63
2023/06/04 08:46:19;;;;;;;2.65;1.90;;;23.80;97.40;;;;;;4131307;28;20065;-62
2023/06/04 08:48:23;;;;;;;3.03;1.65;;;23.70;96.90;;;;;;4131213;28;20042;-62
2023/06/04 08:50:25;;;;;;;1.88;1.75;;;23.30;97.10;;;;;;4130887;28;20046;-63
2023/06/04 08:52:26;;;;;;;4.40;1.50;;;23.30;97.50;;;;;;4131234;28;20027;-63
2023/06/04 08:54:29;;;;;;;2.53;1.88;;;23.50;97.50;;;;;;4130936;28;20089;-69
2023/06/04 08:56:32;;;;;;;3.97;1.80;;;23.30;97.60;;;;;;4131287;28;20093;-61
2023/06/04 08:58:35;;;;;;;2.40;1.65;;;23.10;97.60;;;;;;4145189;28;20504;-62
2023/06/04 09:00:36;;;;;;;4.47;2.08;;;22.90;97.80;;;;;;4131667;28;20088;-69
2023/06/04 09:02:38;;;;;;;4.28;1.80;;;22.80;97.90;;;;;;4130447;28;20100;-68
2023/06/04 09:04:40;;;;;;;3.75;1.92;;;22.90;97.80;;;;;;4145895;28;20033;-62
2023/06/04 09:06:42;;;;;;;5.45;2.10;;;23.20;97.90;;;;;;4129601;28;20102;-63
2023/06/04 09:08:45;;;;;;;1.83;1.48;;;23.60;97.50;;;;;;4131167;28;20038;-66
2023/06/04 09:10:51;;;;;;;2.80;1.60;;;24.20;97.30;;;;;;4130068;28;20120;-69
2023/06/04 09:12:53;;;;;;;4.10;1.60;;;24.60;97.00;;;;;;4145978;28;20025;-62
2023/06/04 09:14:54;;;;;;;5.47;1.90;;;24.30;96.40;;;;;;4130436;28;20054;-64
2023/06/04 09:16:58;;;;;;;2.20;1.90;;;23.90;96.40;;;;;;4131265;28;20030;-64
2023/06/04 09:19:02;;;;;;;3.40;1.70;;;23.60;96.70;;;;;;4129699;28;20425;-63
2023/06/04 09:21:07;;;;;;;2.70;1.50;;;23.40;96.90;;;;;;4130801;28;20046;-68
2023/06/04 09:23:17;;;;;;;2.10;1.90;;;23.20;97.00;;;;;;4130358;28;20031;-63
2023/06/04 09:25:27;;;;;;;6.10;1.80;;;23.20;96.90;;;;;;4130937;28;20081;-63
2023/06/04 09:27:38;;;;;;;2.67;1.42;;;23.10;97.00;;;;;;4130202;28;20026;-68
2023/06/04 09:29:51;;;;;;;3.97;2.20;;;22.90;97.00;;;;;;4130842;28;20427;-63
2023/06/04 09:31:58;;;;;;;2.40;1.80;;;22.90;97.60;;;;;;4130232;28;20022;-62
2023/06/04 09:34:00;;;;;;;2.65;1.55;;;22.70;98.10;;;;;;4130478;28;20101;-62
2023/06/04 09:36:01;;;;;;;5.55;1.75;;;22.60;98.10;;;;;;4130516;28;20638;-62
2023/06/04 09:38:04;;;;;;;4.45;1.58;;;22.60;97.80;;;;;;4130245;28;20490;-62
2023/06/04 09:40:07;;;;;;;2.97;1.70;;;22.70;97.70;;;;;;4130097;28;20482;-62
2023/06/04 09:42:08;;;;;;;6.15;1.83;;;22.80;97.60;;;;;;4129752;28;20064;-63
2023/06/04 09:44:12;;;;;;;1.77;1.67;;;23.20;97.50;;;;;;4131009;28;20479;-63
2023/06/04 09:46:15;;;;;;;3.00;2.08;;;23.20;97.40;;;;;;4129447;28;20444;-62
2023/06/04 09:48:21;;;;;;;3.42;1.60;;;22.70;97.40;;;;;;4130894;28;20368;-63
2023/06/04 09:50:27;;;;;;;2.97;1.80;;;22.30;98.10;;;;;;4129162;28;20088;-63
2023/06/04 09:52:34;;;;;;;4.03;2.40;;;22.00;98.60;;;;;;4130826;28;20514;-67
2023/06/04 09:54:37;;;;;;;3.63;1.90;;;22.00;98.50;;;;;;4129688;28;20426;-62
2023/06/04 09:56:41;;;;;;;7.80;1.95;;;21.90;98.60;;;;;;4130616;28;20034;-62
2023/06/04 09:58:45;;;;;;;5.63;2.08;;;21.90;98.70;;;;;;4128856;28;20499;-68
2023/06/04 10:00:46;;;;;;;3.33;2.20;;;22.00;98.70;;;;;;4130728;28;20027;-62
2023/06/04 10:02:49;;;;;;;2.83;2.15;;;22.10;98.70;;;;;;4129676;28;20031;-62
2023/06/04 10:04:58;;;;;;;8.93;1.75;;;22.00;98.60;;;;;;4130677;28;20077;-62
2023/06/04 10:07:00;;;;;;;4.47;2.28;;;21.90;98.80;;;;;;4129357;28;20054;-62
2023/06/04 10:09:13;;;;;;;2.70;1.80;;;21.90;98.90;;;;;;4129723;28;20054;-62
2023/06/04 10:11:21;;;;;;;2.55;1.95;;;21.80;99.10;;;;;;4129504;28;20372;-61
2023/06/04 10:13:26;;;;;;;3.55;1.90;;;21.60;98.90;;;;;;4130473;28;20088;-63
2023/06/04 10:15:28;;;;;;;3.63;1.92;;;21.50;99.10;;;;;;4129773;28;20034;-64
2023/06/04 10:17:30;;;;;;;3.75;1.67;;;21.50;99.20;;;;;;4130379;28;20026;-65
2023/06/04 10:19:34;;;;;;;3.20;1.50;;;21.50;99.20;;;;;;4129017;28;20043;-63
2023/06/04 10:21:37;;;;;;;3.25;1.60;;;21.60;99.30;;;;;;4129554;28;20043;-66
2023/06/04 10:23:38;;;;;;;2.38;1.65;;;21.70;99.40;;;;;;4129608;28;20088;-62
2023/06/04 10:25:40;;;;;;;4.88;1.77;;;21.60;99.40;;;;;;4128875;28;20031;-62
2023/06/04 10:27:41;;;;;;;2.10;1.90;;;21.60;99.20;;;;;;4129439;28;20888;-62
2023/06/04 10:29:42;;;;;;;3.75;1.70;;;21.60;99.40;;;;;;4128944;28;20479;-63
2023/06/04 10:31:44;;;;;;;4.75;2.22;;;21.60;99.30;;;;;;4128723;28;20050;-62
2023/06/04 10:33:46;;;;;;;3.83;1.70;;;21.60;99.10;;;;;;4128606;28;20026;-63
2023/06/04 10:35:47;;;;;;;3.10;1.75;;;21.40;99.30;;;;;;4130043;28;20355;-63